createdAt,value
2019-02-15T00:01:43.417Z,29.87
2019-02-15T00:04:11.672Z,25.65
2019-02-15T00:06:39.962Z,36.50
2019-02-15T00:09:08.224Z,26.52
2019-02-15T00:11:36.529Z,29.02
2019-02-15T00:14:04.853Z,30.88
2019-02-15T00:16:33.120Z,27.70
2019-02-15T00:19:05.719Z,22.67
2019-02-15T00:21:34.086Z,32.35
2019-02-15T00:24:02.380Z,34.83
2019-02-15T00:26:30.633Z,29.40
2019-02-15T00:28:58.912Z,27.10
2019-02-15T00:31:27.198Z,23.92
2019-02-15T00:33:55.469Z,48.30
2019-02-15T00:36:23.730Z,31.15
2019-02-15T00:38:51.990Z,32.48
2019-02-15T00:41:20.285Z,36.05
2019-02-15T00:43:48.577Z,35.38
2019-02-15T00:46:21.529Z,30.88
2019-02-15T00:48:49.820Z,32.67
2019-02-15T00:51:36.194Z,30.95
2019-02-15T00:54:09.119Z,27.25
2019-02-15T00:56:39.011Z,26.77
2019-02-15T00:59:08.918Z,34.18
2019-02-15T01:01:50.716Z,29.45
2019-02-15T01:04:29.349Z,32.48
2019-02-15T01:07:11.317Z,37.17
2019-02-15T01:09:44.253Z,30.10
2019-02-15T01:12:23.254Z,30.65
2019-02-15T01:14:51.544Z,30.10
2019-02-15T01:17:19.798Z,33.83
2019-02-15T01:19:48.084Z,31.73
2019-02-15T01:22:16.340Z,32.98
2019-02-15T01:24:44.635Z,26.65
2019-02-15T01:27:17.010Z,33.30
2019-02-15T01:29:58.976Z,26.80
2019-02-15T01:32:37.645Z,24.77
2019-02-15T01:35:07.574Z,25.08
2019-02-15T01:37:49.399Z,26.85
2019-02-15T01:40:19.298Z,27.32
2019-02-15T01:42:52.201Z,24.67
2019-02-15T01:45:24.852Z,24.27
2019-02-15T01:47:53.167Z,31.68
2019-02-15T01:50:21.422Z,28.40
2019-02-15T01:52:49.695Z,28.25
2019-02-15T01:55:17.983Z,22.70
2019-02-15T01:57:46.286Z,33.45
2019-02-15T02:00:16.120Z,24.52
2019-02-15T02:02:44.378Z,30.12
2019-02-15T02:05:12.669Z,24.75
2019-02-15T02:07:40.931Z,32.78
2019-02-15T02:10:10.317Z,26.25
2019-02-15T02:12:38.574Z,23.47
2019-02-15T02:15:08.720Z,30.10
2019-02-15T02:17:37.009Z,25.55
2019-02-15T02:20:08.017Z,21.02
2019-02-15T02:22:36.276Z,20.52
2019-02-15T02:25:05.802Z,23.32
2019-02-15T02:27:34.060Z,30.40
2019-02-15T02:30:02.426Z,48.05
2019-02-15T02:32:30.680Z,24.40
2019-02-15T02:34:58.977Z,25.62
2019-02-15T02:37:27.272Z,24.33
2019-02-15T02:39:55.536Z,21.93
2019-02-15T02:42:23.800Z,22.27
2019-02-15T02:44:52.070Z,28.10
2019-02-15T02:47:20.356Z,24.85
2019-02-15T02:49:48.614Z,23.47
2019-02-15T02:52:16.908Z,23.40
2019-02-15T02:54:45.169Z,25.75
2019-02-15T02:57:13.431Z,25.32
2019-02-15T02:59:41.706Z,25.57
2019-02-15T03:02:09.971Z,28.90
2019-02-15T03:04:38.267Z,25.08
2019-02-15T03:07:06.534Z,25.32
2019-02-15T03:09:34.821Z,24.90
2019-02-15T03:12:03.098Z,22.35
2019-02-15T03:14:31.390Z,23.47
2019-02-15T03:16:59.670Z,21.93
2019-02-15T03:19:27.925Z,25.97
2019-02-15T03:21:56.179Z,25.20
2019-02-15T03:24:24.467Z,23.83
2019-02-15T03:26:52.721Z,25.65
2019-02-15T03:29:21.001Z,21.45
2019-02-15T03:31:49.257Z,22.00
2019-02-15T03:34:17.550Z,22.90
2019-02-15T03:36:50.146Z,22.52
2019-02-15T03:39:20.042Z,21.00
2019-02-15T03:41:48.335Z,20.82
2019-02-15T03:44:22.267Z,20.92
2019-02-15T03:46:46.610Z,19.73
2019-02-15T03:49:14.875Z,17.37
2019-02-15T03:51:43.171Z,19.05
2019-02-15T03:54:11.422Z,19.77
2019-02-15T03:56:39.684Z,22.42
2019-02-15T03:59:07.978Z,18.80
2019-02-15T04:01:36.235Z,21.00
2019-02-15T04:04:04.527Z,19.92
2019-02-15T04:06:32.772Z,16.42
2019-02-15T04:09:01.193Z,21.90
2019-02-15T04:11:29.445Z,17.62
2019-02-15T04:13:57.703Z,21.55
2019-02-15T04:16:26.005Z,16.73
2019-02-15T04:18:54.249Z,18.37
2019-02-15T04:21:22.507Z,20.32
2019-02-15T04:23:50.921Z,16.73
2019-02-15T04:26:19.173Z,13.38
2019-02-15T04:28:47.456Z,16.00
2019-02-15T04:31:15.752Z,13.50
2019-02-15T04:33:44.021Z,15.65
2019-02-15T04:36:12.309Z,13.00
2019-02-15T04:38:40.563Z,20.92
2019-02-15T04:41:08.817Z,14.28
2019-02-15T04:43:37.103Z,14.85
2019-02-15T04:46:05.394Z,16.07
2019-02-15T04:48:33.713Z,13.98
2019-02-15T04:51:01.975Z,11.53
2019-02-15T04:53:30.210Z,11.22
2019-02-15T04:55:58.622Z,17.55
2019-02-15T04:58:26.896Z,29.63
2019-02-15T05:00:55.156Z,13.22
2019-02-15T05:03:23.449Z,18.87
2019-02-15T05:05:51.719Z,19.05
2019-02-15T05:08:19.987Z,11.65
2019-02-15T05:10:48.281Z,12.13
2019-02-15T05:13:16.521Z,10.15
2019-02-15T05:15:44.852Z,17.23
2019-02-15T05:18:13.100Z,16.40
2019-02-15T05:20:41.347Z,15.70
2019-02-15T05:23:09.667Z,16.90
2019-02-15T05:25:37.886Z,12.55
2019-02-15T05:28:08.745Z,10.18
2019-02-15T05:30:36.156Z,12.88
2019-02-15T05:33:04.409Z,11.80
2019-02-15T05:35:32.706Z,14.38
2019-02-15T05:38:00.959Z,12.10
2019-02-15T05:40:29.246Z,8.88
2019-02-15T05:42:57.563Z,12.63
2019-02-15T05:45:25.835Z,17.20
2019-02-15T05:47:54.121Z,12.33
2019-02-15T05:50:22.372Z,13.50
2019-02-15T05:52:50.664Z,13.20
2019-02-15T05:55:18.924Z,8.68
2019-02-15T05:57:47.208Z,9.88
2019-02-15T06:00:15.452Z,9.75
2019-02-15T06:02:43.736Z,10.53
2019-02-15T06:05:11.984Z,13.53
2019-02-15T06:07:40.274Z,12.55
2019-02-15T06:10:08.808Z,12.63
2019-02-15T06:12:37.080Z,14.40
2019-02-15T06:15:14.893Z,12.98
2019-02-15T06:17:35.793Z,32.38
2019-02-15T06:20:04.035Z,22.10
2019-02-15T06:22:32.353Z,26.62
2019-02-15T06:25:00.614Z,14.38
2019-02-15T06:27:28.865Z,11.48
2019-02-15T06:29:57.143Z,14.58
2019-02-15T06:32:25.409Z,18.20
2019-02-15T06:34:53.696Z,19.80
2019-02-15T06:37:21.979Z,12.28
2019-02-15T06:39:50.229Z,15.43
2019-02-15T06:42:18.519Z,12.50
2019-02-15T06:44:46.781Z,15.72
2019-02-15T06:47:15.078Z,10.98
2019-02-15T06:49:43.330Z,7.95
2019-02-15T06:52:11.626Z,10.53
2019-02-15T06:54:39.880Z,8.63
2019-02-15T06:57:08.146Z,8.23
2019-02-15T06:59:43.648Z,9.70
2019-02-15T07:02:13.572Z,7.25
2019-02-15T07:04:43.477Z,12.83
2019-02-15T07:07:11.729Z,25.25
2019-02-15T07:09:40.009Z,61.55
2019-02-15T07:12:08.274Z,34.50
2019-02-15T07:14:36.577Z,12.82
2019-02-15T07:17:04.827Z,22.80
2019-02-15T07:19:33.093Z,106.12
2019-02-15T07:22:01.371Z,93.45
2019-02-15T07:24:29.629Z,82.07
2019-02-15T07:26:57.917Z,80.97
2019-02-15T07:29:26.210Z,77.37
2019-02-15T07:31:54.471Z,46.25
2019-02-15T07:34:22.743Z,16.20
2019-02-15T07:36:51.046Z,31.37
2019-02-15T07:39:19.302Z,55.73
2019-02-15T07:41:47.561Z,36.80
2019-02-15T07:44:15.835Z,24.80
2019-02-15T07:46:44.088Z,15.20
2019-02-15T07:49:12.372Z,35.83
2019-02-15T07:51:40.641Z,56.02
2019-02-15T07:54:08.935Z,85.75
2019-02-15T07:56:37.327Z,64.32
2019-02-15T07:59:05.595Z,65.83
2019-02-15T08:01:33.847Z,57.95
2019-02-15T08:04:02.136Z,61.05
2019-02-15T08:06:30.456Z,38.05
2019-02-15T08:08:58.711Z,27.65
2019-02-15T08:11:26.968Z,32.33
2019-02-15T08:13:55.258Z,40.48
2019-02-15T08:16:23.588Z,52.33
2019-02-15T08:18:51.872Z,72.55
2019-02-15T08:21:20.131Z,65.65
2019-02-15T08:23:48.466Z,57.43
2019-02-15T08:26:16.721Z,49.95
2019-02-15T08:28:44.984Z,52.90
2019-02-15T08:31:13.271Z,45.20
2019-02-15T08:33:41.528Z,31.70
2019-02-15T08:36:09.796Z,32.85
2019-02-15T08:38:38.056Z,36.40
2019-02-15T08:41:06.357Z,37.55
2019-02-15T08:43:34.775Z,40.80
2019-02-15T08:46:03.530Z,42.43
2019-02-15T08:48:33.167Z,39.73
2019-02-15T08:51:01.562Z,35.25
2019-02-15T08:53:30.136Z,40.92
2019-02-15T08:55:58.578Z,29.18
2019-02-15T08:58:27.009Z,24.80
2019-02-15T09:00:55.315Z,34.88
2019-02-15T09:03:23.575Z,40.90
2019-02-15T09:05:51.869Z,38.48
2019-02-15T09:08:20.164Z,28.00
2019-02-15T09:10:48.425Z,33.25
2019-02-15T09:13:16.712Z,29.65
2019-02-15T09:15:44.969Z,29.27
2019-02-15T09:18:13.245Z,30.02
2019-02-15T09:20:41.533Z,23.35
2019-02-15T09:23:09.787Z,22.95
2019-02-15T09:25:38.087Z,22.25
2019-02-15T09:28:13.744Z,24.60
2019-02-15T09:30:42.255Z,54.73
2019-02-15T09:33:10.515Z,34.33
2019-02-15T09:35:38.816Z,29.35
2019-02-15T09:38:07.081Z,50.73
2019-02-15T09:40:35.341Z,54.83
2019-02-15T09:43:03.641Z,49.38
2019-02-15T09:45:32.979Z,54.60
2019-02-15T09:48:01.336Z,59.50
2019-02-15T09:50:29.662Z,54.63
2019-02-15T09:52:57.921Z,60.95
2019-02-15T09:55:26.180Z,55.63
2019-02-15T09:57:54.464Z,57.15
2019-02-15T10:00:22.752Z,64.65
2019-02-15T10:02:51.012Z,81.20
2019-02-15T10:05:19.303Z,73.90
2019-02-15T10:07:47.559Z,68.62
2019-02-15T10:10:15.883Z,78.28
2019-02-15T10:12:44.138Z,77.47
2019-02-15T10:15:12.633Z,80.72
2019-02-15T10:17:40.929Z,78.22
2019-02-15T10:20:10.820Z,72.60
2019-02-15T10:22:39.130Z,25.85
2019-02-15T10:25:08.822Z,17.32
2019-02-15T10:27:37.117Z,19.27
2019-02-15T10:30:10.866Z,61.60
2019-02-15T10:32:39.138Z,56.33
2019-02-15T10:35:09.642Z,63.50
2019-02-15T10:37:37.912Z,78.02
2019-02-15T10:40:08.976Z,82.40
2019-02-15T10:42:37.261Z,89.03
2019-02-15T10:45:08.929Z,87.08
2019-02-15T10:47:37.207Z,73.47
2019-02-15T10:50:08.219Z,86.42
2019-02-15T10:52:36.495Z,65.20
2019-02-15T10:55:06.689Z,69.12
2019-02-15T10:57:34.973Z,74.62
2019-02-15T11:00:06.807Z,62.60
2019-02-15T11:02:35.123Z,61.65
2019-02-15T11:05:03.388Z,58.13
2019-02-15T11:07:31.640Z,41.70
2019-02-15T11:09:59.933Z,35.65
2019-02-15T11:12:28.188Z,33.00
2019-02-15T11:14:56.464Z,30.85
2019-02-15T11:17:24.721Z,26.45
2019-02-15T11:19:53.008Z,28.05
2019-02-15T11:22:21.264Z,20.32
2019-02-15T11:24:49.557Z,18.95
2019-02-15T11:27:17.813Z,20.60
2019-02-15T11:29:46.101Z,19.70
2019-02-15T11:32:14.351Z,19.60
2019-02-15T11:34:42.657Z,14.83
2019-02-15T11:37:10.925Z,18.35
2019-02-15T11:39:39.215Z,18.73
2019-02-15T11:42:07.479Z,30.77
2019-02-15T11:44:35.773Z,31.12
2019-02-15T11:47:04.035Z,30.55
2019-02-15T11:49:32.284Z,26.20
2019-02-15T11:52:00.555Z,28.57
2019-02-15T11:54:28.808Z,30.65
2019-02-15T11:56:57.102Z,31.85
2019-02-15T11:59:25.392Z,28.00
2019-02-15T12:01:53.724Z,37.20
2019-02-15T12:04:22.016Z,27.05
2019-02-15T12:06:50.258Z,15.25
2019-02-15T12:09:18.544Z,16.97
2019-02-15T12:11:46.796Z,15.48
2019-02-15T12:14:15.090Z,15.68
2019-02-15T12:16:43.351Z,18.25
2019-02-15T12:19:11.639Z,14.38
2019-02-15T12:21:39.893Z,15.65
2019-02-15T12:24:08.145Z,16.65
2019-02-15T12:26:36.427Z,15.90
2019-02-15T12:29:04.683Z,15.10
2019-02-15T12:31:32.969Z,15.13
2019-02-15T12:34:01.222Z,18.30
2019-02-15T12:36:29.500Z,17.77
2019-02-15T12:38:57.757Z,16.73
2019-02-15T12:41:26.054Z,15.43
2019-02-15T12:43:54.304Z,16.42
2019-02-15T12:46:22.563Z,18.90
2019-02-15T12:48:50.838Z,19.27
2019-02-15T12:51:19.125Z,16.87
2019-02-15T12:53:47.425Z,21.70
2019-02-15T12:56:15.670Z,17.60
2019-02-15T12:58:43.960Z,19.02
2019-02-15T13:01:12.216Z,22.13
2019-02-15T13:03:40.474Z,24.95
2019-02-15T13:06:08.759Z,33.13
2019-02-15T13:08:37.021Z,34.35
2019-02-15T13:11:05.308Z,23.80
2019-02-15T13:13:33.607Z,26.87
2019-02-15T13:16:01.864Z,35.50
2019-02-15T13:18:30.184Z,39.13
2019-02-15T13:20:58.444Z,30.65
2019-02-15T13:23:26.703Z,32.80
2019-02-15T13:25:55.055Z,23.12
2019-02-15T13:28:23.366Z,19.27
2019-02-15T13:30:51.622Z,21.87
2019-02-15T13:33:19.882Z,24.90
2019-02-15T13:35:48.157Z,24.52
2019-02-15T13:38:16.475Z,23.60
2019-02-15T13:40:44.947Z,34.78
2019-02-15T13:43:13.264Z,45.78
2019-02-15T13:45:41.558Z,35.40
2019-02-15T13:48:09.833Z,29.20
2019-02-15T13:50:38.109Z,25.02
2019-02-15T13:53:06.406Z,48.15
2019-02-15T13:55:34.666Z,54.83
2019-02-15T13:58:02.962Z,41.68
2019-02-15T14:00:31.218Z,24.70
2019-02-15T14:02:59.513Z,22.02
2019-02-15T14:05:27.783Z,23.73
2019-02-15T14:07:56.125Z,25.05
2019-02-15T14:10:24.383Z,30.15
2019-02-15T14:12:52.647Z,19.23
2019-02-15T14:15:20.927Z,16.10
2019-02-15T14:17:49.192Z,33.88
2019-02-15T14:20:17.586Z,22.77
2019-02-15T14:22:45.878Z,23.07
2019-02-15T14:25:14.162Z,37.60
2019-02-15T14:27:42.476Z,24.82
2019-02-15T14:30:12.087Z,25.30
2019-02-15T14:32:40.527Z,24.25
2019-02-15T14:35:10.316Z,19.40
2019-02-15T14:37:38.623Z,20.48
2019-02-15T14:40:11.661Z,28.20
2019-02-15T14:42:39.922Z,38.02
2019-02-15T14:45:10.398Z,27.42
2019-02-15T14:47:38.662Z,25.52
2019-02-15T14:50:08.699Z,19.27
2019-02-15T14:52:36.961Z,19.10
2019-02-15T14:55:07.294Z,20.17
2019-02-15T14:57:35.558Z,18.70
2019-02-15T15:00:04.722Z,20.48
2019-02-15T15:02:32.982Z,17.75
2019-02-15T15:05:01.287Z,14.90
2019-02-15T15:07:29.542Z,16.40
2019-02-15T15:09:57.799Z,17.60
2019-02-15T15:12:26.087Z,13.95
2019-02-15T15:14:54.337Z,18.70
2019-02-15T15:17:22.675Z,15.10
2019-02-15T15:19:50.918Z,16.48
2019-02-15T15:22:19.185Z,16.32
2019-02-15T15:24:47.481Z,20.62
2019-02-15T15:27:15.740Z,20.82
2019-02-15T15:29:44.008Z,24.02
2019-02-15T15:32:12.294Z,15.38
2019-02-15T15:34:40.546Z,16.05
2019-02-15T15:37:16.203Z,32.35
2019-02-15T15:39:38.850Z,70.62
2019-02-15T15:42:07.114Z,82.42
2019-02-15T15:44:35.412Z,71.90
2019-02-15T15:47:04.230Z,68.47
2019-02-15T15:49:32.525Z,66.35
2019-02-15T15:52:00.787Z,133.87
2019-02-15T15:54:29.116Z,96.78
2019-02-15T15:56:57.374Z,92.53
2019-02-15T15:59:25.665Z,106.80
2019-02-15T16:01:53.920Z,64.15
2019-02-15T16:04:22.190Z,82.50
2019-02-15T16:06:50.494Z,95.22
2019-02-15T16:09:18.746Z,46.85
2019-02-15T16:11:47.022Z,56.10
2019-02-15T16:14:15.273Z,56.08
2019-02-15T16:16:43.598Z,40.55
2019-02-15T16:19:11.828Z,45.10
2019-02-15T16:21:40.111Z,49.25
2019-02-15T16:24:12.666Z,46.02
2019-02-15T16:26:38.360Z,45.00
2019-02-15T16:29:06.630Z,45.15
2019-02-15T16:31:34.892Z,40.23
2019-02-15T16:34:03.186Z,26.77
2019-02-15T16:36:31.471Z,48.80
2019-02-15T16:38:59.728Z,57.10
2019-02-15T16:41:28.035Z,52.35
2019-02-15T16:43:56.300Z,41.30
2019-02-15T16:46:24.556Z,38.35
2019-02-15T16:48:52.850Z,50.78
2019-02-15T16:51:21.163Z,76.45
2019-02-15T16:53:49.424Z,53.33
2019-02-15T16:56:17.685Z,62.20
2019-02-15T16:58:46.092Z,61.95
2019-02-15T17:01:14.348Z,39.40
2019-02-15T17:03:42.608Z,46.33
2019-02-15T17:06:10.922Z,58.23
2019-02-15T17:08:39.177Z,56.33
2019-02-15T17:11:07.458Z,44.60
2019-02-15T17:13:35.750Z,32.40
2019-02-15T17:16:04.009Z,26.02
2019-02-15T17:18:32.276Z,21.02
2019-02-15T17:21:00.533Z,28.70
2019-02-15T17:23:28.833Z,24.03
2019-02-15T17:25:57.119Z,25.20
2019-02-15T17:28:25.424Z,45.10
2019-02-15T17:30:53.722Z,35.93
2019-02-15T17:33:21.984Z,38.13
2019-02-15T17:35:50.238Z,36.80
2019-02-15T17:38:18.506Z,48.13
2019-02-15T17:40:46.793Z,34.55
2019-02-15T17:43:15.074Z,57.15
2019-02-15T17:45:43.327Z,48.83
2019-02-15T17:48:11.622Z,40.17
2019-02-15T17:50:39.881Z,53.48
2019-02-15T17:53:08.201Z,46.13
2019-02-15T17:55:36.456Z,62.87
2019-02-15T17:58:04.783Z,57.33
2019-02-15T18:00:33.297Z,44.93
2019-02-15T18:03:01.645Z,34.50
2019-02-15T18:05:29.894Z,68.37
2019-02-15T18:07:58.188Z,56.23
2019-02-15T18:10:26.449Z,32.67
2019-02-15T18:12:54.718Z,41.13
2019-02-15T18:15:23.024Z,45.27
2019-02-15T18:17:51.309Z,46.20
2019-02-15T18:20:19.593Z,41.10
2019-02-15T18:22:47.930Z,33.30
2019-02-15T18:25:16.226Z,35.50
2019-02-15T18:27:44.496Z,34.60
2019-02-15T18:30:14.911Z,39.30
2019-02-15T18:32:43.230Z,40.33
2019-02-15T18:35:11.469Z,61.43
2019-02-15T18:37:39.740Z,80.80
2019-02-15T18:40:09.841Z,75.10
2019-02-15T18:42:38.132Z,42.80
2019-02-15T18:45:16.762Z,50.53
2019-02-15T18:47:45.051Z,61.93
2019-02-15T18:50:13.336Z,64.87
2019-02-15T18:52:41.591Z,57.60
2019-02-15T18:55:10.921Z,56.88
2019-02-15T18:57:39.182Z,55.67
2019-02-15T19:00:14.787Z,38.03
2019-02-15T19:02:45.105Z,41.00
2019-02-15T19:05:13.900Z,40.85
2019-02-15T19:07:42.160Z,63.60
2019-02-15T19:10:15.788Z,66.90
2019-02-15T19:12:44.049Z,85.83
2019-02-15T19:15:14.486Z,52.30
2019-02-15T19:17:42.743Z,79.17
2019-02-15T19:20:13.384Z,101.27
2019-02-15T19:22:41.637Z,105.77
2019-02-15T19:25:14.804Z,53.70
2019-02-15T19:27:43.124Z,73.93
2019-02-15T19:30:16.797Z,94.10
2019-02-15T19:32:45.126Z,71.50
2019-02-15T19:35:13.409Z,64.07
2019-02-15T19:37:41.684Z,70.13
2019-02-15T19:40:12.472Z,78.57
2019-02-15T19:42:42.166Z,69.07
2019-02-15T19:45:11.904Z,42.97
2019-02-15T19:47:40.163Z,39.47
2019-02-15T19:50:11.195Z,51.93
2019-02-15T19:52:39.690Z,77.50
2019-02-15T19:55:09.529Z,57.63
2019-02-15T19:57:37.797Z,106.00
2019-02-15T20:00:14.657Z,73.83
2019-02-15T20:02:42.918Z,151.37
2019-02-15T20:05:11.182Z,160.57
2019-02-15T20:07:39.489Z,143.20
2019-02-15T20:10:10.697Z,153.47
2019-02-15T20:12:39.064Z,138.40
2019-02-15T20:15:10.306Z,122.30
2019-02-15T20:17:38.590Z,110.13
2019-02-15T20:20:11.976Z,94.73
2019-02-15T20:22:40.267Z,52.77
2019-02-15T20:25:10.666Z,54.63
2019-02-15T20:27:39.146Z,66.30
2019-02-15T20:30:15.655Z,36.43
2019-02-15T20:32:43.945Z,43.93
2019-02-15T20:35:13.609Z,99.83
2019-02-15T20:37:41.952Z,87.87
2019-02-15T20:40:11.589Z,49.40
2019-02-15T20:42:39.830Z,75.90
2019-02-15T20:45:17.128Z,116.60
2019-02-15T20:47:45.395Z,96.33
2019-02-15T20:50:14.193Z,105.20
2019-02-15T20:52:42.511Z,92.97
2019-02-15T20:55:13.107Z,71.67
2019-02-15T20:57:41.359Z,90.40
2019-02-15T21:00:15.948Z,94.77
2019-02-15T21:02:44.204Z,117.83
2019-02-15T21:05:12.459Z,124.10
2019-02-15T21:07:40.763Z,54.60
2019-02-15T21:10:11.369Z,43.60
2019-02-15T21:12:45.917Z,88.40
2019-02-15T21:15:17.009Z,110.17
2019-02-15T21:17:45.295Z,118.73
2019-02-15T21:20:14.694Z,146.13
2019-02-15T21:22:42.949Z,122.33
2019-02-15T21:25:12.976Z,118.07
2019-02-15T21:27:41.238Z,121.67
2019-02-15T21:30:11.969Z,78.03
2019-02-15T21:32:40.228Z,98.73
2019-02-15T21:35:08.525Z,103.80
2019-02-15T21:37:36.781Z,100.43
2019-02-15T21:40:08.505Z,86.30
2019-02-15T21:43:13.025Z,103.10
2019-02-15T21:45:41.584Z,160.97
2019-02-15T21:48:09.964Z,136.13
2019-02-15T21:50:38.351Z,96.70
2019-02-15T21:53:06.680Z,86.60
2019-02-15T21:55:35.016Z,69.67
2019-02-15T21:58:03.302Z,105.83
2019-02-15T22:00:31.608Z,85.20
2019-02-15T22:03:00.173Z,52.43
2019-02-15T22:05:28.606Z,64.97
2019-02-15T22:07:57.122Z,78.67
2019-02-15T22:10:25.692Z,81.20
2019-02-15T22:12:54.360Z,58.97
2019-02-15T22:15:22.814Z,49.07
2019-02-15T22:17:51.330Z,49.60
2019-02-15T22:20:26.336Z,53.07
2019-02-15T22:22:50.108Z,53.17
2019-02-15T22:25:18.435Z,62.83
2019-02-15T22:27:46.686Z,57.30
2019-02-15T22:30:19.983Z,54.07
2019-02-15T22:32:48.265Z,48.80
2019-02-15T22:35:16.533Z,60.70
2019-02-15T22:37:44.805Z,60.50
2019-02-15T22:40:33.271Z,81.50
2019-02-15T22:43:10.813Z,105.90
2019-02-15T22:45:39.112Z,147.53
2019-02-15T22:48:07.439Z,149.93
2019-02-15T22:50:36.482Z,112.40
2019-02-15T22:53:04.873Z,139.32
2019-02-15T22:55:33.173Z,138.37
2019-02-15T22:58:01.501Z,155.10
2019-02-15T23:00:40.593Z,150.43
2019-02-15T23:03:08.935Z,168.83
2019-02-15T23:05:37.267Z,144.40
2019-02-15T23:08:05.556Z,140.73
2019-02-15T23:10:33.812Z,144.10
2019-02-15T23:13:02.114Z,106.80
2019-02-15T23:15:30.377Z,114.20
2019-02-15T23:17:58.678Z,125.97
2019-02-15T23:20:26.979Z,103.27
2019-02-15T23:22:55.298Z,124.30
2019-02-15T23:25:24.991Z,121.40
2019-02-15T23:27:53.508Z,118.07
2019-02-15T23:30:21.808Z,115.57
2019-02-15T23:32:50.078Z,160.90
2019-02-15T23:35:18.350Z,124.63
2019-02-15T23:37:47.180Z,124.30
2019-02-15T23:40:15.488Z,110.47
2019-02-15T23:42:43.781Z,106.83
2019-02-15T23:45:12.062Z,117.27
2019-02-15T23:47:40.325Z,126.50
2019-02-15T23:50:09.181Z,93.53
2019-02-15T23:52:37.438Z,117.40
2019-02-15T23:55:06.101Z,111.93
2019-02-15T23:57:34.374Z,93.40
